Weather observations for the past three days for
Aitkin Municipal Airport - Steve Kurtz Field
Imperial (Metric)
Date Time (cdt) Wind (mph) Vis. (mi.) Weather Sky Cond. Temperature (ºF) Relative Humidity Wind Chill (°F) Heat Index (°F) Pressure Precipitation (in)
Air Dwpt 6 hour altimeter (in) sea level (mb) 1 hr 3 hr 6 hr
Max. Min.
05 19:16 NW 9 10.00 Overcast OVC050 37.4 21.2 52% 31 29.88 0.0
05 18:55 NW 9 10.00 Overcast OVC050 37.4 21.2 52% 31 29.87 0.0
05 18:35 NW 10 10.00 Overcast OVC050 39.2 19.4 45% 33 29.87 0.0
05 18:15 NW 10 10.00 Overcast SCT044 OVC050 39.2 21.2 48% 33 29.86 0.0
05 17:55 N 7 10.00 Overcast SCT044 OVC050 39.2 21.2 48% 35 29.86 0.0
05 17:35 NW 9 10.00 Overcast SCT041 OVC050 39.2 23 52% 34 29.86 0.0
05 17:15 NW 10 G 20 10.00 Overcast BKN046 OVC050 39.2 23 52% 33 29.86 0.0
05 16:56 NW 8 10.00 Overcast OVC048 39.2 21.2 48% 34 29.85 0.0
05 16:35 NW 10 10.00 Overcast OVC048 41 21.2 45% 35 29.85 0.0
05 16:15 NW 9 10.00 Overcast OVC050 41 21.2 45% 36 29.84 0.0
05 15:55 NW 7 10.00 Overcast OVC050 42.8 21.2 42% 39 29.84 0.0
05 15:35 NW 8 G 16 10.00 Mostly Cloudy BKN048 42.8 21.2 42% 39 29.84 0.0
05 15:15 W 8 G 20 10.00 Partly Cloudy SCT048 42.8 21.2 42% 39 29.84 0.0
05 14:55 NW 6 10.00 Mostly Cloudy BKN050 42.8 21.2 42% 40 29.84 0.0
05 14:36 NW 10 G 17 10.00 Mostly Cloudy BKN048 41 21.2 45% 35 29.84 0.0
05 14:15 W 9 G 16 10.00 Mostly Cloudy BKN048 41 21.2 45% 36 29.84 0.0
05 13:55 W 9 G 18 10.00 Overcast OVC048 41 21.2 45% 36 29.83 0.0
05 13:35 W 7 G 17 10.00 Mostly Cloudy BKN048 41 21.2 45% 37 29.83 0.0
05 13:15 W 10 G 18 10.00 Overcast OVC046 41 21.2 45% 35 29.83 0.0
05 12:55 NW 10 G 18 10.00 Overcast OVC042 39.2 21.2 48% 33 29.83 0.0
05 12:35 NW 10 G 16 10.00 Overcast OVC042 39.2 21.2 48% 33 29.83 0.0
05 12:16 W 9 G 17 10.00 Overcast OVC044 39.2 21.2 48% 34 29.83 0.0
05 11:55 NW 10 10.00 Overcast OVC043 39.2 21.2 48% 33 29.82 0.0
05 11:35 NW 8 10.00 Overcast OVC045 39.2 21.2 48% 34 29.82 0.0
05 11:15 NW 9 G 18 10.00 Overcast OVC044 39.2 21.2 48% 34 29.82 0.0
05 10:55 W 13 G 17 10.00 Mostly Cloudy BKN042 BKN055 41 21.2 45% 34 29.81 0.0
05 10:35 W 8 G 20 10.00 Overcast BKN042 OVC055 37.4 21.2 52% 32 29.81 0.0
05 10:15 W 8 G 20 10.00 Overcast BKN042 OVC055 37.4 21.2 52% 32 29.81 0.0
05 09:56 NW 9 G 17 10.00 Mostly Cloudy BKN042 BKN055 35.6 21.2 56% 29 29.81 0.0
05 09:35 W 12 G 20 10.00 Mostly Cloudy BKN044 37.4 21.2 52% 30 29.8 0.0
05 09:15 NW 10 G 16 10.00 Mostly Cloudy BKN042 35.6 21.2 56% 29 29.8 0.0
05 08:55 NW 7 10.00 Mostly Cloudy SCT038 BKN047 35.6 21.2 56% 31 29.79 0.0
05 08:35 W 6 10.00 Mostly Cloudy BKN049 BKN075 35.6 21.2 56% 31 29.79 0.0
05 08:15 W 7 10.00 Mostly Cloudy SCT049 BKN075 35.6 21.2 56% 31 29.78 0.0
05 07:55 W 7 10.00 Partly Cloudy SCT047 SCT075 33.8 21.2 60% 28 29.78 0.0
05 07:36 NW 8 10.00 Mostly Cloudy SCT047 BKN075 33.8 21.2 60% 28 29.77 0.0
05 07:15 NW 6 10.00 Mostly Cloudy SCT047 SCT055 BKN075 33.8 21.2 60% 29 29.76 0.0
05 06:55 NW 6 10.00 Overcast SCT047 OVC075 32 21.2 64% 27 29.76 0.0
05 06:35 W 5 10.00 Overcast OVC075 32 21.2 64% 28 29.75 0.0
05 06:15 NW 6 10.00 Overcast OVC075 30.2 21.2 69% 25 29.75 0.0
05 05:55 NW 5 10.00 Overcast OVC075 30.2 21.2 69% 26 29.74 0.0
05 05:35 NW 6 10.00 Overcast OVC075 30.2 21.2 69% 25 29.74 0.0
05 05:15 W 8 10.00 Mostly Cloudy BKN075 30.2 21.2 69% 23 29.74 0.0
05 04:56 W 6 10.00 Fair CLR 30.2 21.2 69% 25 29.74 0.0
05 04:35 NW 5 10.00 Fair CLR 30.2 21.2 69% 26 29.73 0.0
05 04:15 W 7 10.00 Fair CLR 32 21.2 64% 26 29.73 0.0
05 03:55 NW 8 10.00 Fair CLR 32 21.2 64% 25 29.72 0.0
05 03:35 W 8 10.00 Fair CLR 33.8 21.2 60% 28 29.72 0.0
05 03:15 W 7 10.00 Fair CLR 33.8 21.2 60% 28 29.71 0.0
05 02:55 NW 7 10.00 Fair CLR 33.8 21.2 60% 28 29.71 0.0
05 02:36 NW 10 G 22 10.00 Fair CLR 35.6 21.2 56% 29 29.71 0.0
05 02:15 NW 7 10.00 Fair CLR 35.6 23 60% 31 29.71 0.0
05 01:55 NW 8 10.00 Fair CLR 35.6 23 60% 30 29.7 0.0
05 01:35 NW 7 10.00 Fair CLR 35.6 24.8 65% 31 29.7 0.0
05 01:15 NW 8 10.00 Partly Cloudy SCT090 37.4 23 56% 32 29.7 0.0
05 00:55 NW 10 G 18 10.00 Fair CLR 37.4 23 56% 31 29.69 0.0
05 00:36 NW 5 10.00 Partly Cloudy SCT090 37.4 21.2 52% 34 29.69 0.0
05 00:15 NW 6 10.00 Mostly Cloudy BKN090 37.4 23 56% 33 29.69 0.0
04 23:55 NW 5 10.00 Partly Cloudy SCT090 37.4 24.8 60% 34 29.68 0.0
04 23:35 NW 7 10.00 Partly Cloudy SCT090 39.2 24.8 56% 35 29.68 0.0
04 23:15 NW 6 10.00 Mostly Cloudy BKN090 39.2 24.8 56% 36 29.68 0.0
04 22:55 NW 5 10.00 Mostly Cloudy BKN090 41 24.8 53% 38 29.68 0.0
04 22:35 W 6 10.00 Mostly Cloudy BKN090 42.8 24.8 49% 40 29.67 0.0
04 22:16 W 8 10.00 Overcast SCT070 OVC090 42.8 24.8 49% 39 29.67 0.0
04 21:55 W 3 10.00 Overcast SCT055 SCT070 OVC080 42.8 24.8 49% 29.67 0.0
04 21:35 W 7 G 16 10.00 Overcast OVC080 42.8 24.8 49% 39 29.66 0.0
04 21:15 W 7 10.00 Overcast OVC080 42.8 24.8 49% 39 29.65 0.0
04 20:55 NW 5 10.00 Overcast OVC080 42.8 24.8 49% 41 29.65 0.0
04 20:35 NW 7 10.00 Overcast SCT065 OVC080 42.8 23 46% 39 29.64 0.0
04 20:15 NW 9 10.00 Mostly Cloudy SCT049 BKN065 BKN080 44.6 23 43% 40 29.64 0.0
04 19:56 W 3 10.00 Mostly Cloudy BKN080 44.6 21.2 39% 29.63 0.0
04 19:35 W 10 G 16 10.00 Overcast OVC080 44.6 21.2 39% 40 29.63 0.0
04 19:15 NW 8 10.00 Mostly Cloudy BKN080 44.6 21.2 39% 41 29.62 0.0
04 18:55 W 8 G 16 10.00 Partly Cloudy SCT070 SCT080 44.6 19.4 37% 41 29.62 0.0
04 18:35 W 13 G 22 10.00 Mostly Cloudy BKN070 44.6 19.4 37% 39 29.62 0.0
04 18:15 NW 12 G 18 10.00 Partly Cloudy SCT070 46.4 19.4 34% 42 29.62 0.0
04 17:55 W 13 G 20 10.00 Partly Cloudy SCT070 46.4 19.4 34% 41 29.61 0.0
04 17:36 NW 15 G 22 10.00 Mostly Cloudy BKN060 48.2 19.4 32% 43 29.6 0.0
04 17:15 W 12 G 24 10.00 Mostly Cloudy BKN060 46.4 21.2 37% 42 29.61 0.0
04 16:55 NW 18 G 26 10.00 Overcast OVC060 44.6 23 43% 37 29.6 0.0
04 16:35 NW 12 G 20 10.00 Overcast OVC060 46.4 23 40% 42 29.59 0.0
04 16:15 NW 13 G 17 10.00 Overcast OVC050 46.4 24.8 43% 41 29.59 0.0
04 15:55 NW 13 G 24 10.00 Overcast OVC050 46.4 24.8 43% 41 29.58 0.0
04 15:35 NW 9 G 21 10.00 Overcast BKN050 OVC055 46.4 24.8 43% 42 29.58 0.0
04 15:16 W 17 G 23 10.00 Overcast OVC050 46.4 24.8 43% 40 29.57 0.0
04 14:55 NW 14 G 22 10.00 Overcast BKN048 OVC050 46.4 26.6 46% 41 29.57 0.0
04 14:35 W 9 G 20 10.00 Mostly Cloudy BKN046 BKN050 46.4 28.4 50% 42 29.56 0.0
04 14:15 W 12 G 18 10.00 Mostly Cloudy SCT046 BKN050 46.4 26.6 46% 42 29.55 0.0
04 13:55 NW 14 G 23 10.00 Mostly Cloudy BKN044 BKN050 46.4 28.4 50% 41 29.54 0.0
04 13:35 NW 15 G 22 10.00 Mostly Cloudy SCT043 BKN050 46.4 28.4 50% 41 29.54 0.0
04 13:16 NW 15 G 23 10.00 Overcast BKN044 BKN050 OVC055 46.4 28.4 50% 41 29.53 0.0
04 12:55 NW 13 G 24 10.00 Mostly Cloudy BKN046 BKN050 48.2 30.2 50% 43 29.52 0.0
04 12:35 W 13 G 21 10.00 Overcast BKN046 OVC050 48.2 30.2 50% 43 29.51 0.0
04 12:15 NW 12 G 22 10.00 Mostly Cloudy BKN048 BKN055 48.2 28.4 46% 44 29.5 0.0
04 11:55 W 17 G 24 10.00 Mostly Cloudy BKN045 BKN050 48.2 28.4 46% 42 29.5 0.0
04 11:35 NW 13 G 23 10.00 Overcast OVC047 48.2 28.4 46% 43 29.49 0.0
04 11:15 W 14 G 29 10.00 Overcast OVC047 48.2 28.4 46% 43 29.49 0.0
04 10:56 W 12 G 22 10.00 Overcast BKN044 OVC050 48.2 30.2 50% 44 29.48 0.0
04 10:35 NW 14 G 28 10.00 Overcast SCT043 OVC050 48.2 30.2 50% 43 29.47 0.0
04 10:15 NW 15 G 26 10.00 Overcast SCT041 OVC050 48.2 30.2 50% 43 29.46 0.0
04 09:55 NW 14 G 32 10.00 Overcast BKN040 OVC050 48.2 30.2 50% 43 29.44 0.0
04 09:35 NW 13 G 22 10.00 Overcast BKN036 BKN046 OVC050 50 33.8 54% 46 29.43 0.0
04 09:15 NW 10 G 20 10.00 Overcast BKN036 OVC046 48.2 35.6 62% 44 29.43 0.0
04 08:55 W 14 G 25 10.00 Overcast BKN039 OVC046 50 35.6 58% 45 29.42 0.0
04 08:36 NW 14 G 22 10.00 Mostly Cloudy SCT039 BKN046 51.8 35.6 54% 29.41 0.0
04 08:15 W 13 G 26 10.00 Mostly Cloudy SCT039 BKN046 50 35.6 58% 46 29.4 0.0
04 07:55 W 12 G 18 10.00 Mostly Cloudy SCT041 BKN047 BKN110 50 35.6 58% 46 29.4 0.0
04 07:35 W 8 G 20 10.00 Mostly Cloudy BKN110 50 35.6 58% 47 29.38 0.0
04 07:15 W 12 G 26 10.00 Overcast OVC095 50 35.6 58% 46 29.37 0.0
04 06:55 W 14 G 25 10.00 Overcast OVC085 51.8 35.6 54% 29.36 0.0
04 06:35 W 7 10.00 Overcast SCT070 OVC085 51.8 37.4 58% 29.36 0.0
04 06:16 W 8 10.00 Overcast SCT060 OVC070 51.8 37.4 58% 29.35 0.0
04 05:56 Calm 10.00 Mostly Cloudy BKN060 51.8 37.4 58% 29.34 0.0
04 05:35 NW 7 G 20 10.00 Partly Cloudy SCT060 51.8 37.4 58% 29.34 0.0
04 05:15 NW 10 G 23 10.00 Fair CLR 51.8 37.4 58% 29.34 0.0
04 04:55 N 20 G 25 10.00 Fair CLR 57.2 37.4 48% 29.33 0.0
04 04:35 W 15 G 18 10.00 Fair CLR 60.8 30.2 31% 29.3 0.0
04 04:15 SW 12 G 17 10.00 Partly Cloudy SCT110 60.8 28.4 29% 29.29 0.0
04 03:55 SW 12 G 21 10.00 Partly Cloudy SCT110 60.8 28.4 29% 29.29 0.0
04 03:36 SW 16 G 20 10.00 Partly Cloudy SCT100 60.8 28.4 29% 29.31 0.0
04 03:15 SW 9 G 16 10.00 Partly Cloudy SCT100 60.8 28.4 29% 29.31 0.0
04 02:55 SW 16 G 23 10.00 Mostly Cloudy SCT065 BKN110 60.8 28.4 29% 29.33 0.0
04 02:35 SW 13 G 18 10.00 Partly Cloudy SCT110 60.8 28.4 29% 29.33 0.0
04 02:15 SW 14 G 24 10.00 Fair CLR 60.8 28.4 29% 29.34 0.0
04 01:55 SW 16 G 23 10.00 Fair CLR 60.8 28.4 29% 29.36 0.0
04 01:35 SW 14 G 22 10.00 Fair CLR 60.8 28.4 29% 29.37 0.0
04 01:16 SW 14 G 24 10.00 Fair CLR 60.8 30.2 31% 29.38 0.0
04 00:55 SW 12 G 22 10.00 Fair CLR 60.8 30.2 31% 29.4 0.0
04 00:35 SW 12 G 22 10.00 Fair CLR 60.8 30.2 31% 29.42 0.0
04 00:15 SW 13 G 24 10.00 Fair CLR 60.8 30.2 31% 29.42 0.0
03 23:55 SW 14 G 22 10.00 Fair CLR 60.8 30.2 31% 29.44 0.0
03 23:35 SW 14 G 18 10.00 Fair CLR 60.8 30.2 31% 29.45 0.0
03 23:15 S 13 G 16 10.00 Fair CLR 59 28.4 31% 29.46 0.0
03 22:56 S 12 G 17 10.00 Fair CLR 59 28.4 31% 29.48 0.0
03 22:35 S 12 G 16 10.00 Fair CLR 59 28.4 31% 29.49 0.0
03 22:15 S 12 G 16 10.00 Fair CLR 59 28.4 31% 29.51 0.0
03 21:55 S 9 10.00 Fair CLR 59 28.4 31% 29.53 0.0
03 21:35 S 8 10.00 Fair CLR 57.2 28.4 33% 29.54 0.0
03 21:15 S 8 10.00 Fair CLR 57.2 28.4 33% 29.55 0.0
03 20:55 S 6 10.00 Fair CLR 59 28.4 31% 29.56 0.0
03 20:36 SW 6 10.00 Fair CLR 60.8 26.6 27% 29.57 0.0
03 20:15 SW 6 10.00 Fair CLR 60.8 26.6 27% 29.58 0.0
03 19:55 SW 6 10.00 Fair CLR 62.6 26.6 25% 29.59 0.0
03 19:35 W 8 10.00 Fair CLR 64.4 26.6 24% 29.6 0.0
03 19:15 W 7 G 16 10.00 Fair CLR 64.4 24.8 22% 29.61 0.0
03 18:55 W 9 10.00 Fair CLR 64.4 24.8 22% 29.62 0.0
03 18:35 W 10 10.00 Fair CLR 66.2 24.8 21% 29.61 0.0
03 18:16 W 8 G 20 10.00 Fair CLR 68 23 18% 29.62 0.0
03 17:55 W 10 G 16 10.00 Fair CLR 66.2 23 19% 29.63 0.0
03 17:35 SW 12 G 17 10.00 Fair CLR 68 24.8 20% 29.63 0.0
03 17:15 W 9 G 20 10.00 Fair CLR 66.2 24.8 21% 29.63 0.0
03 16:55 W 13 G 21 10.00 Fair CLR 69.8 24.8 18% 29.63 0.0
03 16:35 NW 9 G 16 10.00 Fair CLR 68 23 18% 29.63 0.0
03 16:15 NW 12 G 20 10.00 Fair CLR 68 23 18% 29.65 0.0
03 15:56 W 12 10.00 Fair CLR 66.2 23 19% 29.66 0.0
03 15:35 W 10 10.00 Fair CLR 66.2 24.8 21% 29.67 0.0
03 15:15 NW 12 G 20 10.00 Fair CLR 66.2 24.8 21% 29.68 0.0
03 14:55 W 12 G 20 10.00 Fair CLR 64.4 24.8 22% 29.69 0.0
03 14:35 N 9 G 17 10.00 Fair CLR 64.4 24.8 22% 29.7 0.0
03 14:15 N 12 G 20 10.00 Fair CLR 64.4 23 21% 29.71 0.0
03 13:55 NW 8 G 21 10.00 Fair CLR 64.4 23 21% 29.71 0.0
03 13:36 NW 10 G 20 10.00 Fair CLR 62.6 21.2 20% 29.72 0.0
03 13:15 NW 14 G 20 10.00 Fair CLR 64.4 24.8 22% 29.72 0.0
03 12:55 NW 13 G 17 10.00 Fair CLR 62.6 24.8 24% 29.73 0.0
03 12:35 NW 10 G 18 10.00 Fair CLR 62.6 24.8 24% 29.74 0.0
03 12:15 N 12 G 23 10.00 Fair CLR 62.6 23 22% 29.75 0.0
03 11:55 NW 14 G 21 10.00 Fair CLR 60.8 21.2 22% 29.75 0.0
03 11:35 N 14 G 22 10.00 Fair CLR 60.8 23 23% 29.75 0.0
03 11:16 N 16 G 23 10.00 Fair CLR 60.8 21.2 22% 29.75 0.0
03 10:55 NW 10 G 20 10.00 Fair CLR 59 17.6 20% 29.75 0.0
03 10:35 NW 12 G 20 10.00 Fair CLR 57.2 19.4 23% 29.75 0.0
03 10:15 NW 9 G 16 10.00 Fair CLR 57.2 21.2 25% 29.74 0.0
03 09:55 NW 14 G 21 10.00 Fair CLR 57.2 28.4 33% 29.75 0.0
03 09:35 N 12 10.00 Fair CLR 57.2 33.8 41% 29.74 0.0
03 09:15 NW 8 10.00 Fair CLR 55.4 33.8 44% 29.75 0.0
03 08:56 N 12 G 18 10.00 Fair CLR 53.6 35.6 51% 29.75 0.0
03 08:35 N 14 10.00 Fair CLR 53.6 37.4 54% 29.74 0.0
03 08:15 NW 7 10.00 Fair CLR 51.8 37.4 58% 29.73 0.0
03 07:55 NW 5 10.00 Fair CLR 50 39.2 67% 49 29.73 0.0
03 07:35 NW 7 10.00 Fair CLR 48.2 37.4 66% 46 29.72 0.0
03 07:15 NW 3 10.00 Fair CLR 46.4 37.4 71% 29.72 0.0
03 06:55 Calm 10.00 Fair CLR 41 35.6 81% 29.72 0.0
03 06:36 Calm 10.00 Fair CLR 35.6 35.6 100% 29.71 0.0
03 06:16 NW 3 10.00 Fair CLR 33.8 33.8 100% 29.7 0.0
03 05:55 Calm 10.00 Fair CLR 33.8 33.8 100% 29.7 0.0
03 05:35 Calm 10.00 Fair CLR 35.6 33.8 93% 29.69 0.0
03 05:15 Calm 10.00 Fair CLR 35.6 33.8 93% 29.69 0.0
03 04:55 Calm 10.00 Fair CLR 35.6 33.8 93% 29.69 0.0
03 04:35 N 3 10.00 Fair CLR 35.6 33.8 93% 29.69 0.0
03 04:15 Calm 10.00 Fair CLR 37.4 35.6 93% 29.69 0.0
03 03:56 Calm 10.00 Fair CLR 39.2 33.8 81% 29.68 0.0
03 03:35 Calm 10.00 Fair CLR 44.6 35.6 71% 29.68 0.0
03 03:15 Calm 10.00 Fair CLR 46.4 35.6 66% 29.68 0.0
03 02:55 Calm 10.00 Fair CLR 48.2 35.6 62% 29.67 0.0
03 02:35 S 5 10.00 Fair CLR 50 35.6 58% 49 29.67 0.0
03 02:15 S 6 10.00 Partly Cloudy SCT100 51.8 35.6 54% 29.68 0.0
03 01:56 S 7 10.00 Mostly Cloudy BKN100 51.8 35.6 54% 29.68 0.0
03 01:35 S 5 10.00 Mostly Cloudy BKN100 51.8 35.6 54% 29.69 0.0
03 01:15 S 7 10.00 Partly Cloudy SCT100 53.6 35.6 51% 29.69 0.0
03 00:55 S 8 10.00 Light Rain SCT100 53.6 37.4 54% 29.69 0.0
03 00:35 SE 5 10.00 Light Drizzle SCT060 BKN110 53.6 37.4 54% 29.71 0.0
03 00:15 SE 6 10.00 Mostly Cloudy SCT070 BKN110 53.6 37.4 54% 29.71 0.0
02 23:55 SE 7 10.00 Partly Cloudy SCT095 51.8 37.4 58% 29.72 0.0
02 23:36 S 7 10.00 Light Rain SCT050 SCT065 50 39.2 67% 48 29.73 0.0
02 23:15 N 5 10.00 Mostly Cloudy SCT075 BKN100 BKN110 51.8 39.2 62% 29.75 0.0
02 22:55 SE 3 10.00 Light Drizzle SCT055 SCT065 OVC100 51.8 37.4 58% 29.74 0.0
02 22:35 S 5 10.00 Mostly Cloudy SCT042 BKN055 BKN100 51.8 37.4 58% 29.75 0.0
02 22:15 Calm 10.00 Partly Cloudy SCT100 51.8 35.6 54% 29.76 0.0
02 21:55 SE 6 10.00 Mostly Cloudy SCT075 BKN100 53.6 37.4 54% 29.75 0.0
02 21:35 Calm 10.00 Partly Cloudy SCT075 53.6 37.4 54% 29.76 0.0
02 21:16 SE 5 10.00 Partly Cloudy SCT075 53.6 37.4 54% 29.76 0.0
02 20:55 SE 6 10.00 Partly Cloudy SCT065 SCT095 53.6 37.4 54% 29.76 0.0
02 20:35 Calm 10.00 Mostly Cloudy SCT060 BKN095 55.4 37.4 51% 29.78 0.0
02 20:15 W 8 10.00 Light Rain SCT029 SCT044 BKN060 55.4 37.4 51% 29.79 0.0
02 19:55 W 13 G 18 10.00 Partly Cloudy SCT080 60.8 30.2 31% 29.78 0.0
02 19:35 Calm 10.00 Mostly Cloudy BKN080 60.8 30.2 31% 29.78 0.0
Date Time (cdt) Wind (mph) Vis. (mi.) Weather Sky Cond. Air Dwpt Max. Min. Relative Humidity Wind Chill (°F) Heat Index (°F) altimeter (in) sea level (mb) 1 hr 3 hr 6 hr
6 hour
Temperature (ºF) Pressure Precipitation (in)